ウルムチ の空港の天気 - METARとTAF

ウルムチ地窩堡国際空港 ( ZWWW / URC ) - 中国 新疆ウイグル自治区ウルムチ市
飛行場実況気象(Metar)
観測時間11/27 17:30 CST (11/27 09:30 UTC)
風向・風速北東 2m/s
視程10km以上
天気現象
少しの雲 雲底高度 910m
気温-12℃
湿度56%
気圧1041hPa
METARZWWW 270930Z 05002MPS 9999 FEW030 M12/M19 Q1041 NOSIG
過去の天気等 Google飛行場航空写真 Wunderground天気予報

過去48時間のMETAR

飛行場予報(TAF)
発表時間: 11/27 11:04 CST (11/27 03:04 UTC)
予報対象時間: 27日14時 CST ~ 28日14時 CST
風向・風速北 4m/s
視程6000m
なし
27日21時 CST ~ 27日22時 CST に徐々に
風向・風速南南東 3m/s
28日11時 CST ~ 28日12時 CST に徐々に
風向・風速北 4m/s
TAF ZWWW 270304Z 2706/2806 36004MPS 6000 NSC TXM11/2709Z TNM22/2723Z
BECMG 2713/2714 15003MPS
BECMG 2803/2804 36004MPS